sensor_id;sensor_type;location;lat;lon;timestamp;pressure;altitude;pressure_sealevel;temperature;humidity
62418;BME280;48456;54.242;10.280;2023-04-01T00:01:00;99507.28;;;6.92;100.00
62418;BME280;48456;54.242;10.280;2023-04-01T00:03:26;99517.00;;;6.83;100.00
62418;BME280;48456;54.242;10.280;2023-04-01T00:05:54;99512.66;;;6.79;100.00
62418;BME280;48456;54.242;10.280;2023-04-01T00:08:20;99514.41;;;6.79;100.00
62418;BME280;48456;54.242;10.280;2023-04-01T00:10:46;99516.19;;;6.76;100.00
62418;BME280;48456;54.242;10.280;2023-04-01T00:13:13;99523.19;;;6.78;100.00
62418;BME280;48456;54.242;10.280;2023-04-01T00:15:40;99516.19;;;6.76;100.00
62418;BME280;48456;54.242;10.280;2023-04-01T00:18:07;99519.72;;;6.74;100.00
62418;BME280;48456;54.242;10.280;2023-04-01T00:20:33;99520.63;;;6.71;100.00
62418;BME280;48456;54.242;10.280;2023-04-01T00:22:59;99529.34;;;6.73;100.00
62418;BME280;48456;54.242;10.280;2023-04-01T00:25:26;99525.00;;;6.71;100.00
62418;BME280;48456;54.242;10.280;2023-04-01T00:27:53;99520.59;;;6.73;100.00
62418;BME280;48456;54.242;10.280;2023-04-01T00:30:19;99518.06;;;6.63;100.00
62418;BME280;48456;54.242;10.280;2023-04-01T00:32:45;99522.47;;;6.58;100.00
62418;BME280;48456;54.242;10.280;2023-04-01T00:35:12;99520.75;;;6.57;100.00
62418;BME280;48456;54.242;10.280;2023-04-01T00:37:38;99525.13;;;6.58;100.00
62418;BME280;48456;54.242;10.280;2023-04-01T00:40:11;99516.41;;;6.53;100.00
62418;BME280;48456;54.242;10.280;2023-04-01T00:42:47;99521.66;;;6.53;100.00
62418;BME280;48456;54.242;10.280;2023-04-01T00:47:59;99522.56;;;6.47;100.00
62418;BME280;48456;54.242;10.280;2023-04-01T00:50:27;99527.91;;;6.40;100.00
62418;BME280;48456;54.242;10.280;2023-04-01T00:52:54;99520.06;;;6.32;100.00
62418;BME280;48456;54.242;10.280;2023-04-01T00:55:21;99528.00;;;6.22;100.00
62418;BME280;48456;54.242;10.280;2023-04-01T00:57:49;99536.78;;;6.18;100.00
62418;BME280;48456;54.242;10.280;2023-04-01T01:00:16;99536.84;;;6.14;100.00
62418;BME280;48456;54.242;10.280;2023-04-01T01:02:44;99541.22;;;6.07;100.00
62418;BME280;48456;54.242;10.280;2023-04-01T01:05:12;99542.09;;;6.07;100.00
62418;BME280;48456;54.242;10.280;2023-04-01T01:10:16;99544.78;;;5.96;100.00
62418;BME280;48456;54.242;10.280;2023-04-01T01:15:36;99543.06;;;5.89;100.00
62418;BME280;48456;54.242;10.280;2023-04-01T01:20:53;99544.84;;;5.81;100.00
62418;BME280;48456;54.242;10.280;2023-04-01T01:34:11;99557.16;;;5.68;100.00
62418;BME280;48456;54.242;10.280;2023-04-01T01:36:42;99553.66;;;5.64;100.00
62418;BME280;48456;54.242;10.280;2023-04-01T01:39:11;99555.44;;;5.59;100.00
62418;BME280;48456;54.242;10.280;2023-04-01T01:41:39;99560.69;;;5.61;100.00
62418;BME280;48456;54.242;10.280;2023-04-01T01:44:08;99566.81;;;5.56;100.00
62418;BME280;48456;54.242;10.280;2023-04-01T01:46:34;99556.31;;;5.56;100.00
62418;BME280;48456;54.242;10.280;2023-04-01T01:49:02;99571.22;;;5.53;100.00
62418;BME280;48456;54.242;10.280;2023-04-01T01:51:29;99564.22;;;5.45;100.00
62418;BME280;48456;54.242;10.280;2023-04-01T01:53:56;99573.88;;;5.42;100.00
62418;BME280;48456;54.242;10.280;2023-04-01T01:56:23;99573.88;;;5.40;100.00
62418;BME280;48456;54.242;10.280;2023-04-01T01:58:54;99573.88;;;5.39;100.00
62418;BME280;48456;54.242;10.280;2023-04-01T02:01:24;99583.50;;;5.30;100.00
62418;BME280;48456;54.242;10.280;2023-04-01T02:03:52;99580.88;;;5.29;100.00
62418;BME280;48456;54.242;10.280;2023-04-01T02:06:20;99576.53;;;5.31;100.00
62418;BME280;48456;54.242;10.280;2023-04-01T02:11:14;99573.91;;;5.22;100.00
62418;BME280;48456;54.242;10.280;2023-04-01T02:13:43;99586.16;;;5.16;100.00
62418;BME280;48456;54.242;10.280;2023-04-01T02:16:19;99592.28;;;5.12;100.00
62418;BME280;48456;54.242;10.280;2023-04-01T02:18:48;99589.69;;;5.09;100.00
62418;BME280;48456;54.242;10.280;2023-04-01T02:21:16;99591.41;;;5.04;100.00
62418;BME280;48456;54.242;10.280;2023-04-01T02:23:44;99594.06;;;4.96;100.00
62418;BME280;48456;54.242;10.280;2023-04-01T02:26:11;99601.91;;;4.93;100.00
62418;BME280;48456;54.242;10.280;2023-04-01T02:28:39;99604.53;;;4.93;100.00
62418;BME280;48456;54.242;10.280;2023-04-01T02:31:07;99610.66;;;4.89;100.00
62418;BME280;48456;54.242;10.280;2023-04-01T02:33:34;99623.75;;;4.87;100.00
62418;BME280;48456;54.242;10.280;2023-04-01T02:36:02;99619.38;;;4.78;100.00
62418;BME280;48456;54.242;10.280;2023-04-01T02:38:28;99621.13;;;4.81;100.00
62418;BME280;48456;54.242;10.280;2023-04-01T02:40:58;99622.00;;;4.80;100.00
62418;BME280;48456;54.242;10.280;2023-04-01T02:43:26;99624.63;;;4.80;100.00
62418;BME280;48456;54.242;10.280;2023-04-01T02:45:53;99635.97;;;4.74;100.00
62418;BME280;48456;54.242;10.280;2023-04-01T02:48:19;99632.47;;;4.71;100.00
62418;BME280;48456;54.242;10.280;2023-04-01T02:50:46;99629.00;;;4.72;100.00
62418;BME280;48456;54.242;10.280;2023-04-01T02:53:12;99636.84;;;4.72;100.00
62418;BME280;48456;54.242;10.280;2023-04-01T02:55:38;99639.47;;;4.70;100.00
62418;BME280;48456;54.242;10.280;2023-04-01T02:58:05;99644.69;;;4.67;100.00
62418;BME280;48456;54.242;10.280;2023-04-01T03:00:31;99631.59;;;4.64;100.00
62418;BME280;48456;54.242;10.280;2023-04-01T03:02:58;99649.06;;;4.62;100.00
62418;BME280;48456;54.242;10.280;2023-04-01T03:05:24;99649.94;;;4.61;100.00
62418;BME280;48456;54.242;10.280;2023-04-01T03:07:51;99653.44;;;4.58;100.00
62418;BME280;48456;54.242;10.280;2023-04-01T03:10:18;99649.94;;;4.58;100.00
62418;BME280;48456;54.242;10.280;2023-04-01T03:12:44;99648.19;;;4.55;100.00
62418;BME280;48456;54.242;10.280;2023-04-01T03:15:11;99642.06;;;4.50;100.00
62418;BME280;48456;54.242;10.280;2023-04-01T03:17:39;99663.00;;;4.51;100.00
62418;BME280;48456;54.242;10.280;2023-04-01T03:20:06;99661.25;;;4.49;100.00
62418;BME280;48456;54.242;10.280;2023-04-01T03:22:32;99670.00;;;4.49;100.00
62418;BME280;48456;54.242;10.280;2023-04-01T03:24:59;99667.34;;;4.45;100.00
62418;BME280;48456;54.242;10.280;2023-04-01T03:27:25;99668.22;;;4.39;100.00
62418;BME280;48456;54.242;10.280;2023-04-01T03:29:51;99680.44;;;4.37;100.00
62418;BME280;48456;54.242;10.280;2023-04-01T03:32:18;99676.94;;;4.33;100.00
62418;BME280;48456;54.242;10.280;2023-04-01T03:34:44;99678.66;;;4.26;100.00
62418;BME280;48456;54.242;10.280;2023-04-01T03:37:11;99689.13;;;4.26;100.00
62418;BME280;48456;54.242;10.280;2023-04-01T03:39:37;99684.72;;;4.24;100.00
62418;BME280;48456;54.242;10.280;2023-04-01T03:42:03;99689.09;;;4.20;100.00
62418;BME280;48456;54.242;10.280;2023-04-01T03:44:30;99696.94;;;4.17;100.00
62418;BME280;48456;54.242;10.280;2023-04-01T03:46:57;99696.94;;;4.14;100.00
62418;BME280;48456;54.242;10.280;2023-04-01T03:49:23;99703.03;;;4.13;100.00
62418;BME280;48456;54.242;10.280;2023-04-01T03:51:51;99701.25;;;4.09;100.00
62418;BME280;48456;54.242;10.280;2023-04-01T03:54:31;99716.97;;;4.12;100.00
62418;BME280;48456;54.242;10.280;2023-04-01T03:57:01;99710.88;;;4.08;100.00
62418;BME280;48456;54.242;10.280;2023-04-01T03:59:27;99716.06;;;4.03;100.00
62418;BME280;48456;54.242;10.280;2023-04-01T04:01:54;99719.56;;;4.02;100.00
62418;BME280;48456;54.242;10.280;2023-04-01T04:04:20;99712.56;;;3.98;100.00
62418;BME280;48456;54.242;10.280;2023-04-01T04:06:47;99720.41;;;3.97;100.00
62418;BME280;48456;54.242;10.280;2023-04-01T04:09:14;99722.13;;;3.98;100.00
62418;BME280;48456;54.242;10.280;2023-04-01T04:11:40;99722.13;;;3.93;100.00
62418;BME280;48456;54.242;10.280;2023-04-01T04:14:06;99719.47;;;3.87;100.00
62418;BME280;48456;54.242;10.280;2023-04-01T04:16:34;99722.94;;;3.84;100.00
62418;BME280;48456;54.242;10.280;2023-04-01T04:19:02;99724.69;;;3.84;100.00
62418;BME280;48456;54.242;10.280;2023-04-01T04:21:29;99737.75;;;3.85;100.00
62418;BME280;48456;54.242;10.280;2023-04-01T04:23:55;99735.16;;;3.85;100.00
62418;BME280;48456;54.242;10.280;2023-04-01T04:26:22;99729.09;;;3.88;100.00
62418;BME280;48456;54.242;10.280;2023-04-01T04:28:48;99736.91;;;3.85;100.00
62418;BME280;48456;54.242;10.280;2023-04-01T04:31:24;99750.81;;;3.79;100.00
62418;BME280;48456;54.242;10.280;2023-04-01T04:33:51;99737.75;;;3.81;100.00
62418;BME280;48456;54.242;10.280;2023-04-01T04:36:17;99743.84;;;3.78;100.00
62418;BME280;48456;54.242;10.280;2023-04-01T04:38:44;99745.56;;;3.77;100.00
62418;BME280;48456;54.242;10.280;2023-04-01T04:41:11;99756.00;;;3.74;100.00
62418;BME280;48456;54.242;10.280;2023-04-01T04:43:39;99755.16;;;3.72;100.00
62418;BME280;48456;54.242;10.280;2023-04-01T04:46:09;99758.63;;;3.74;100.00
62418;BME280;48456;54.242;10.280;2023-04-01T04:48:36;99769.97;;;3.75;100.00
62418;BME280;48456;54.242;10.280;2023-04-01T04:51:03;99770.84;;;3.72;100.00
62418;BME280;48456;54.242;10.280;2023-04-01T04:53:29;99774.31;;;3.71;100.00
62418;BME280;48456;54.242;10.280;2023-04-01T04:55:55;99776.91;;;3.68;100.00
62418;BME280;48456;54.242;10.280;2023-04-01T04:58:22;99773.38;;;3.66;100.00
62418;BME280;48456;54.242;10.280;2023-04-01T05:00:48;99776.88;;;3.65;100.00
62418;BME280;48456;54.242;10.280;2023-04-01T05:03:14;99782.13;;;3.67;100.00
62418;BME280;48456;54.242;10.280;2023-04-01T05:05:47;99780.38;;;3.66;100.00
62418;BME280;48456;54.242;10.280;2023-04-01T05:08:14;99791.72;;;3.64;100.00
62418;BME280;48456;54.242;10.280;2023-04-01T05:10:40;99781.25;;;3.64;100.00
62418;BME280;48456;54.242;10.280;2023-04-01T05:13:06;99789.06;;;3.61;100.00
62418;BME280;48456;54.242;10.280;2023-04-01T05:15:33;99793.41;;;3.61;100.00
62418;BME280;48456;54.242;10.280;2023-04-01T05:18:00;99797.78;;;3.63;100.00
62418;BME280;48456;54.242;10.280;2023-04-01T05:20:26;99796.91;;;3.61;100.00
62418;BME280;48456;54.242;10.280;2023-04-01T05:22:56;99804.75;;;3.61;100.00
62418;BME280;48456;54.242;10.280;2023-04-01T05:25:23;99804.75;;;3.61;100.00
62418;BME280;48456;54.242;10.280;2023-04-01T05:27:49;99811.69;;;3.59;100.00
62418;BME280;48456;54.242;10.280;2023-04-01T05:30:15;99815.16;;;3.57;100.00
62418;BME280;48456;54.242;10.280;2023-04-01T05:32:42;99815.16;;;3.57;100.00
62418;BME280;48456;54.242;10.280;2023-04-01T05:35:10;99816.91;;;3.55;100.00
62418;BME280;48456;54.242;10.280;2023-04-01T05:37:36;99825.59;;;3.50;100.00
62418;BME280;48456;54.242;10.280;2023-04-01T05:40:03;99819.47;;;3.50;100.00
62418;BME280;48456;54.242;10.280;2023-04-01T05:42:30;99822.97;;;3.50;100.00
62418;BME280;48456;54.242;10.280;2023-04-01T05:44:56;99835.16;;;3.48;100.00
62418;BME280;48456;54.242;10.280;2023-04-01T05:47:23;99841.25;;;3.49;100.00
62418;BME280;48456;54.242;10.280;2023-04-01T05:49:49;99848.22;;;3.48;100.00
62418;BME280;48456;54.242;10.280;2023-04-01T05:52:15;99838.66;;;3.50;100.00
62418;BME280;48456;54.242;10.280;2023-04-01T05:54:42;99842.13;;;3.51;100.00
62418;BME280;48456;54.242;10.280;2023-04-01T05:57:08;99849.97;;;3.51;100.00
62418;BME280;48456;54.242;10.280;2023-04-01T05:59:35;99850.00;;;3.49;100.00
62418;BME280;48456;54.242;10.280;2023-04-01T06:02:01;99858.69;;;3.50;100.00
62418;BME280;48456;54.242;10.280;2023-04-01T06:04:28;99856.97;;;3.50;100.00
62418;BME280;48456;54.242;10.280;2023-04-01T06:06:59;99852.59;;;3.49;100.00
62418;BME280;48456;54.242;10.280;2023-04-01T06:09:29;99860.41;;;3.46;100.00
62418;BME280;48456;54.242;10.280;2023-04-01T06:12:17;99864.75;;;3.44;100.00
62418;BME280;48456;54.242;10.280;2023-04-01T06:14:51;99869.97;;;3.46;100.00
62418;BME280;48456;54.242;10.280;2023-04-01T06:28:07;99873.44;;;3.43;100.00
62418;BME280;48456;54.242;10.280;2023-04-01T06:30:41;99866.47;;;3.41;100.00
62418;BME280;48456;54.242;10.280;2023-04-01T06:48:26;99928.34;;;3.42;100.00
62418;BME280;48456;54.242;10.280;2023-04-01T06:50:58;99927.47;;;3.43;100.00
62418;BME280;48456;54.242;10.280;2023-04-01T06:56:00;99939.66;;;3.41;100.00
62418;BME280;48456;54.242;10.280;2023-04-01T06:58:33;99943.16;;;3.43;100.00
62418;BME280;48456;54.242;10.280;2023-04-01T07:01:02;99947.56;;;3.45;100.00
62418;BME280;48456;54.242;10.280;2023-04-01T07:03:37;99942.34;;;3.45;100.00
62418;BME280;48456;54.242;10.280;2023-04-01T07:06:08;99949.34;;;3.51;100.00
62418;BME280;48456;54.242;10.280;2023-04-01T07:08:36;99952.81;;;3.45;100.00
62418;BME280;48456;54.242;10.280;2023-04-01T07:11:04;99965.03;;;3.48;100.00
62418;BME280;48456;54.242;10.280;2023-04-01T07:18:47;99982.53;;;3.57;100.00
62418;BME280;48456;54.242;10.280;2023-04-01T07:21:29;99971.19;;;3.53;100.00
62418;BME280;48456;54.242;10.280;2023-04-01T07:24:00;99969.34;;;3.46;100.00
62418;BME280;48456;54.242;10.280;2023-04-01T07:26:27;99985.06;;;3.47;100.00
62418;BME280;48456;54.242;10.280;2023-04-01T07:28:53;99985.00;;;3.44;100.00
62418;BME280;48456;54.242;10.280;2023-04-01T07:31:42;99985.91;;;3.45;100.00
62418;BME280;48456;54.242;10.280;2023-04-01T07:34:27;99984.19;;;3.45;100.00
62418;BME280;48456;54.242;10.280;2023-04-01T07:36:58;99998.09;;;3.46;100.00
62418;BME280;48456;54.242;10.280;2023-04-01T07:39:30;99998.97;;;3.43;100.00
62418;BME280;48456;54.242;10.280;2023-04-01T07:42:05;100010.31;;;3.47;100.00
62418;BME280;48456;54.242;10.280;2023-04-01T07:52:45;100029.44;;;3.40;100.00
62418;BME280;48456;54.242;10.280;2023-04-01T07:55:17;100039.00;;;3.39;100.00
62418;BME280;48456;54.242;10.280;2023-04-01T08:00:17;100034.56;;;3.33;100.00
62418;BME280;48456;54.242;10.280;2023-04-01T08:13:15;100060.88;;;3.46;100.00
62418;BME280;48456;54.242;10.280;2023-04-01T08:15:53;100067.88;;;3.48;100.00
62418;BME280;48456;54.242;10.280;2023-04-01T08:18:30;100074.00;;;3.49;100.00
62418;BME280;48456;54.242;10.280;2023-04-01T08:21:03;100069.63;;;3.48;100.00
62418;BME280;48456;54.242;10.280;2023-04-01T08:23:38;100074.88;;;3.51;100.00
62418;BME280;48456;54.242;10.280;2023-04-01T08:26:07;100085.31;;;3.48;100.00
62418;BME280;48456;54.242;10.280;2023-04-01T08:28:41;100081.00;;;3.51;100.00
62418;BME280;48456;54.242;10.280;2023-04-01T08:31:16;100091.47;;;3.53;100.00
62418;BME280;48456;54.242;10.280;2023-04-01T08:33:44;100095.72;;;3.45;100.00
62418;BME280;48456;54.242;10.280;2023-04-01T08:36:17;100091.38;;;3.45;100.00
62418;BME280;48456;54.242;10.280;2023-04-01T08:51:46;100117.34;;;3.33;100.00
62418;BME280;48456;54.242;10.280;2023-04-01T08:56:46;100123.63;;;3.46;100.00
62418;BME280;48456;54.242;10.280;2023-04-01T09:10:11;100142.81;;;3.46;100.00
62418;BME280;48456;54.242;10.280;2023-04-01T09:36:38;100193.56;;;3.04;100.00
62418;BME280;48456;54.242;10.280;2023-04-01T09:44:35;100204.94;;;3.07;100.00
62418;BME280;48456;54.242;10.280;2023-04-01T09:49:36;100217.13;;;3.05;100.00
62418;BME280;48456;54.242;10.280;2023-04-01T10:13:11;100246.75;;;2.58;100.00
62418;BME280;48456;54.242;10.280;2023-04-01T10:18:45;100244.03;;;2.53;100.00
62418;BME280;48456;54.242;10.280;2023-04-01T10:21:20;100258.78;;;2.51;100.00
62418;BME280;48456;54.242;10.280;2023-04-01T10:31:42;100271.84;;;2.51;100.00
62418;BME280;48456;54.242;10.280;2023-04-01T10:39:57;100281.53;;;2.57;100.00
62418;BME280;48456;54.242;10.280;2023-04-01T10:45:19;100288.59;;;2.61;100.00
62418;BME280;48456;54.242;10.280;2023-04-01T10:58:32;100307.56;;;2.52;100.00
62418;BME280;48456;54.242;10.280;2023-04-01T11:01:19;100316.34;;;2.56;100.00
62418;BME280;48456;54.242;10.280;2023-04-01T11:11:35;100336.31;;;2.54;100.00
62418;BME280;48456;54.242;10.280;2023-04-01T11:14:54;100342.31;;;2.50;100.00
62418;BME280;48456;54.242;10.280;2023-04-01T11:30:21;100356.81;;;2.35;100.00
62418;BME280;48456;54.242;10.280;2023-04-01T11:32:53;100357.75;;;2.39;100.00
62418;BME280;48456;54.242;10.280;2023-04-01T11:40:45;100380.34;;;2.38;100.00
62418;BME280;48456;54.242;10.280;2023-04-01T11:43:19;100381.81;;;2.25;100.00
62418;BME280;48456;54.242;10.280;2023-04-01T11:48:36;100391.72;;;2.40;100.00
62418;BME280;48456;54.242;10.280;2023-04-01T12:04:13;100417.72;;;2.36;100.00
62418;BME280;48456;54.242;10.280;2023-04-01T12:06:44;100430.03;;;2.41;100.00
62418;BME280;48456;54.242;10.280;2023-04-01T12:09:36;100420.59;;;2.48;100.00
62418;BME280;48456;54.242;10.280;2023-04-01T12:17:02;100427.50;;;2.44;100.00
62418;BME280;48456;54.242;10.280;2023-04-01T12:22:10;100436.38;;;2.53;100.00
62418;BME280;48456;54.242;10.280;2023-04-01T12:24:43;100449.19;;;2.42;100.00
62418;BME280;48456;54.242;10.280;2023-04-01T12:27:19;100445.81;;;2.46;100.00
62418;BME280;48456;54.242;10.280;2023-04-01T12:32:42;100457.06;;;2.43;100.00
62418;BME280;48456;54.242;10.280;2023-04-01T12:35:24;100456.19;;;2.43;100.00
62418;BME280;48456;54.242;10.280;2023-04-01T12:45:50;100478.47;;;2.65;100.00
62418;BME280;48456;54.242;10.280;2023-04-01T12:56:36;100452.78;;;2.85;100.00
62418;BME280;48456;54.242;10.280;2023-04-01T13:14:26;100478.50;;;3.07;100.00
62418;BME280;48456;54.242;10.280;2023-04-01T13:22:55;100486.56;;;3.18;100.00
62418;BME280;48456;54.242;10.280;2023-04-01T13:28:08;100497.63;;;3.06;100.00
62418;BME280;48456;54.242;10.280;2023-04-01T13:30:39;100503.78;;;3.08;100.00
62418;BME280;48456;54.242;10.280;2023-04-01T13:38:19;100512.59;;;3.13;100.00
62418;BME280;48456;54.242;10.280;2023-04-01T13:41:12;100506.63;;;3.19;100.00
62418;BME280;48456;54.242;10.280;2023-04-01T13:46:45;100516.81;;;3.06;100.00
62418;BME280;48456;54.242;10.280;2023-04-01T14:02:29;100545.38;;;2.98;100.00
62418;BME280;48456;54.242;10.280;2023-04-01T14:13:02;100554.66;;;2.85;100.00
62418;BME280;48456;54.242;10.280;2023-04-01T14:18:11;100572.00;;;2.82;100.00
62418;BME280;48456;54.242;10.280;2023-04-01T14:25:54;100579.59;;;2.72;100.00
62418;BME280;48456;54.242;10.280;2023-04-01T14:30:57;100596.13;;;2.71;100.00
62418;BME280;48456;54.242;10.280;2023-04-01T14:41:21;100603.41;;;2.83;100.00
62418;BME280;48456;54.242;10.280;2023-04-01T14:49:19;100616.59;;;2.90;100.00
62418;BME280;48456;54.242;10.280;2023-04-01T14:51:48;100619.28;;;2.93;100.00
62418;BME280;48456;54.242;10.280;2023-04-01T14:54:15;100621.84;;;2.91;100.00
62418;BME280;48456;54.242;10.280;2023-04-01T14:57:11;100621.94;;;2.94;100.00
62418;BME280;48456;54.242;10.280;2023-04-01T14:59:35;100626.28;;;2.94;100.00
62418;BME280;48456;54.242;10.280;2023-04-01T15:04:47;100647.31;;;3.00;100.00
62418;BME280;48456;54.242;10.280;2023-04-01T15:10:13;100642.59;;;2.85;100.00
62418;BME280;48456;54.242;10.280;2023-04-01T15:21:01;100663.91;;;2.65;100.00
62418;BME280;48456;54.242;10.280;2023-04-01T15:28:39;100675.25;;;2.67;100.00
62418;BME280;48456;54.242;10.280;2023-04-01T15:31:15;100668.97;;;2.60;100.00
62418;BME280;48456;54.242;10.280;2023-04-01T15:39:14;100695.84;;;2.56;100.00
62418;BME280;48456;54.242;10.280;2023-04-01T15:46:56;100701.59;;;2.77;100.00
62418;BME280;48456;54.242;10.280;2023-04-01T15:49:46;100694.53;;;2.72;100.00
62418;BME280;48456;54.242;10.280;2023-04-01T15:52:21;100692.91;;;2.76;100.00
62418;BME280;48456;54.242;10.280;2023-04-01T16:07:48;100745.16;;;2.76;100.00
62418;BME280;48456;54.242;10.280;2023-04-01T16:10:36;100742.44;;;2.73;100.00
62418;BME280;48456;54.242;10.280;2023-04-01T16:18:41;100755.75;;;2.82;100.00
62418;BME280;48456;54.242;10.280;2023-04-01T16:21:14;100761.06;;;2.85;100.00
62418;BME280;48456;54.242;10.280;2023-04-01T16:23:49;100749.75;;;2.86;100.00
62418;BME280;48456;54.242;10.280;2023-04-01T16:28:48;100757.53;;;2.83;100.00
62418;BME280;48456;54.242;10.280;2023-04-01T16:31:30;100776.53;;;2.78;100.00
62418;BME280;48456;54.242;10.280;2023-04-01T16:42:24;100788.91;;;2.53;100.00
62418;BME280;48456;54.242;10.280;2023-04-01T16:44:29;100801.03;;;2.51;100.00
62418;BME280;48456;54.242;10.280;2023-04-01T16:46:56;100808.69;;;2.44;100.00
62418;BME280;48456;54.242;10.280;2023-04-01T16:49:27;100805.19;;;2.44;100.00
62418;BME280;48456;54.242;10.280;2023-04-01T16:52:00;100806.94;;;2.43;100.00
62418;BME280;48456;54.242;10.280;2023-04-01T16:57:20;100820.31;;;2.25;100.00
62418;BME280;48456;54.242;10.280;2023-04-01T17:00:03;100829.81;;;2.23;100.00
62418;BME280;48456;54.242;10.280;2023-04-01T17:02:49;100830.72;;;2.24;100.00
62418;BME280;48456;54.242;10.280;2023-04-01T17:05:16;100833.31;;;2.24;100.00
62418;BME280;48456;54.242;10.280;2023-04-01T17:07:46;100836.03;;;2.27;100.00
62418;BME280;48456;54.242;10.280;2023-04-01T17:10:50;100852.75;;;2.33;100.00
62418;BME280;48456;54.242;10.280;2023-04-01T17:23:48;100876.22;;;2.04;100.00
62418;BME280;48456;54.242;10.280;2023-04-01T17:26:28;100885.59;;;1.98;100.00
62418;BME280;48456;54.242;10.280;2023-04-01T17:32:05;100880.22;;;1.93;100.00
62418;BME280;48456;54.242;10.280;2023-04-01T17:34:37;100901.63;;;1.83;100.00
62418;BME280;48456;54.242;10.280;2023-04-01T17:42:22;100921.41;;;1.76;100.00
62418;BME280;48456;54.242;10.280;2023-04-01T17:47:26;100929.97;;;1.72;100.00
62418;BME280;48456;54.242;10.280;2023-04-01T17:58:10;100953.13;;;1.62;100.00
62418;BME280;48456;54.242;10.280;2023-04-01T18:01:42;100962.16;;;1.48;100.00
62418;BME280;48456;54.242;10.280;2023-04-01T18:09:12;100972.81;;;1.29;100.00
62418;BME280;48456;54.242;10.280;2023-04-01T18:24:57;101018.97;;;1.32;100.00
62418;BME280;48456;54.242;10.280;2023-04-01T18:27:32;101021.41;;;1.27;100.00
62418;BME280;48456;54.242;10.280;2023-04-01T18:30:15;101024.78;;;1.25;100.00
62418;BME280;48456;54.242;10.280;2023-04-01T18:32:50;101017.03;;;1.26;100.00
62418;BME280;48456;54.242;10.280;2023-04-01T18:38:00;101042.91;;;1.22;100.00
62418;BME280;48456;54.242;10.280;2023-04-01T18:41:10;101042.56;;;1.12;100.00
62418;BME280;48456;54.242;10.280;2023-04-01T18:43:36;101044.25;;;1.12;100.00
62418;BME280;48456;54.242;10.280;2023-04-01T18:46:16;101054.75;;;1.13;100.00
62418;BME280;48456;54.242;10.280;2023-04-01T18:48:56;101060.66;;;1.09;100.00
62418;BME280;48456;54.242;10.280;2023-04-01T18:51:48;101062.22;;;1.04;100.00
62418;BME280;48456;54.242;10.280;2023-04-01T18:54:15;101069.66;;;0.95;100.00
62418;BME280;48456;54.242;10.280;2023-04-01T18:56:48;101076.66;;;0.96;100.00
62418;BME280;48456;54.242;10.280;2023-04-01T18:59:25;101065.31;;;0.95;100.00
62418;BME280;48456;54.242;10.280;2023-04-01T19:04:30;101078.91;;;1.09;100.00
62418;BME280;48456;54.242;10.280;2023-04-01T19:06:58;101090.56;;;0.96;100.00
62418;BME280;48456;54.242;10.280;2023-04-01T19:09:30;101087.06;;;0.96;100.00
62418;BME280;48456;54.242;10.280;2023-04-01T19:23:38;101110.97;;;0.85;100.00
62418;BME280;48456;54.242;10.280;2023-04-01T19:25:38;101118.06;;;0.89;100.00
62418;BME280;48456;54.242;10.280;2023-04-01T19:33:35;101133.75;;;0.91;100.00
62418;BME280;48456;54.242;10.280;2023-04-01T19:36:16;101138.72;;;0.85;100.00
62418;BME280;48456;54.242;10.280;2023-04-01T19:38:52;101147.81;;;0.73;100.00
62418;BME280;48456;54.242;10.280;2023-04-01T19:43:54;101148.72;;;0.74;100.00
62418;BME280;48456;54.242;10.280;2023-04-01T19:46:30;101148.72;;;0.74;100.00
62418;BME280;48456;54.242;10.280;2023-04-01T19:55:48;101166.25;;;0.78;100.00
62418;BME280;48456;54.242;10.280;2023-04-01T20:00:25;101174.13;;;0.80;100.00
62418;BME280;48456;54.242;10.280;2023-04-01T20:13:21;101189.16;;;0.66;100.00
62418;BME280;48456;54.242;10.280;2023-04-01T20:15:57;101195.06;;;0.61;100.00
62418;BME280;48456;54.242;10.280;2023-04-01T20:18:26;101198.50;;;0.60;100.00
62418;BME280;48456;54.242;10.280;2023-04-01T20:21:05;101204.63;;;0.62;100.00
62418;BME280;48456;54.242;10.280;2023-04-01T20:23:43;101209.03;;;0.63;100.00
62418;BME280;48456;54.242;10.280;2023-04-01T20:26:12;101217.66;;;0.62;100.00
62418;BME280;48456;54.242;10.280;2023-04-01T20:31:42;101230.50;;;0.58;100.00
62418;BME280;48456;54.242;10.280;2023-04-01T20:52:24;101257.75;;;0.66;100.00
62418;BME280;48456;54.242;10.280;2023-04-01T20:55:06;101265.63;;;0.68;100.00
62418;BME280;48456;54.242;10.280;2023-04-01T21:05:31;101273.50;;;0.69;100.00
62418;BME280;48456;54.242;10.280;2023-04-01T21:10:50;101281.44;;;0.72;100.00
62418;BME280;48456;54.242;10.280;2023-04-01T21:16:14;101289.06;;;0.68;100.00
62418;BME280;48456;54.242;10.280;2023-04-01T21:39:11;101327.72;;;0.38;100.00
62418;BME280;48456;54.242;10.280;2023-04-01T21:44:20;101332.16;;;0.41;100.00
62418;BME280;48456;54.242;10.280;2023-04-01T21:49:36;101351.59;;;0.30;100.00
62418;BME280;48456;54.242;10.280;2023-04-01T21:52:14;101356.72;;;0.28;100.00
62418;BME280;48456;54.242;10.280;2023-04-01T22:02:40;101367.44;;;0.34;100.00
62418;BME280;48456;54.242;10.280;2023-04-01T22:10:40;101380.72;;;0.41;100.00
62418;BME280;48456;54.242;10.280;2023-04-01T22:13:11;101384.13;;;0.40;100.00
62418;BME280;48456;54.242;10.280;2023-04-01T22:18:20;101385.47;;;0.49;100.00
62418;BME280;48456;54.242;10.280;2023-04-01T22:26:23;101404.41;;;0.47;100.00
62418;BME280;48456;54.242;10.280;2023-04-01T22:28:58;101400.63;;;0.40;100.00
62418;BME280;48456;54.242;10.280;2023-04-01T22:31:35;101414.47;;;0.39;100.00
62418;BME280;48456;54.242;10.280;2023-04-01T22:34:11;101412.28;;;0.48;100.00